首页
METAR-TAF:

METAR-TAF

机场 :

迈阿密, 佛罗里达州, 美国

邁亞密國際機場

纬度: 25-47-26N, 经度: 080-18-59W, 海拔: 3米

当前天气观测

该预报发布于9分钟前的04:53 UTC
静风
温度 24°C
湿度 83%
气压 1014 hPa
能見度: 16.1公里
散云层高于2600英尺
散云层高于4800英尺
多云层高于21000英尺

METAR: KMIA 270453Z 00000KT 10SM SCT026 SCT048 BKN210 24/21 A2994 RMK AO2 SLP138 T02440206 402830189

时间: 01:02 (05:02 UTC)

预报

该预报发布于1小时和40分钟前的03:22 UTC
预报有效从27日的 03点(UTC)到 28日的 06点(UTC)
风速5节,风向多变
能見度: 10公里
少量云层高于4000英尺
多云层高于25000英尺
从 27日的 1600点(UTC)
风速9节,风向东南
能見度: 10公里
散云层高于3000英尺
多云层高于6000英尺
多云层高于25000英尺
附近有阵雨
几率 30%
从 27日的 20点(UTC)到 27日的 22点(UTC)
能見度: 6.4公里
散云层高于2000英尺
多云层高于4000英尺, 积雨云.
雷暴, 雨
从 28日的 0000点(UTC)
风速6节,风向西转西南
能見度: 10公里
散云层高于3000英尺
多云层高于5000英尺
多云层高于8000英尺
附近有阵雨

TAF: KMIA 270322Z 2703/2806 VRB05KT P6SM FEW040 BKN250 FM271600 14009KT P6SM VCSH SCT030 BKN060 BKN250 PROB30 2720/2722 4SM TSRA SCT020 BKN040CB FM280000 24006KT P6SM VCSH SCT030 BKN050 BKN080

超过4000个机场的气象观测和天气预报(METAR&TAF报告)。

可查询的气象台以黄色和红色小点在地图上表示。

将鼠标移到小点上方,可查看气象台名称。

然后点击查看天气观测和预报。

如需切换地图:点击带黑十字的绿色按钮放大地图;点击带横线的绿色按钮缩小地图;或者点击绿色箭头查看邻近地区的地图。


METAR-TAF: